Flight Track Log - Related Links

Times and Time Zones

All times are in EDT time to prevent confusion due to time zone crossing. See the EJA646 flight status page for this flight to view local times or setup timezone preferences in your user account.

Time Position Orientation Groundspeed Altitude Reporting Facility
EDT Latitude Longitude Course Direction KTS MPH feet Rate Location/Type
Sat 10:18:55 AM 30.6133 -81.4492 23° Northeast 147 169 500  Level Jacksonville Center
Sat 10:20:16 AM 30.6631 -81.4169 29° Northeast 218 251 1,900 1,064 Climbing Jacksonville Center
Sat 10:21:16 AM 30.7214 -81.3992 15° North 207 238 3,000 2,350 Climbing Jacksonville Center
Sat 10:22:16 AM 30.7750 -81.3572 34° Northeast 207 238 6,600 3,150 Climbing Jacksonville Center
Sat 10:23:16 AM 30.8331 -81.3128 33° Northeast 229 264 9,300 2,400 Climbing Jacksonville Center
Sat 10:24:00 AM 31.1961 -81.1353 23° Northeast  Level FlightAware Approximate
Sat 10:24:16 AM 30.9078 -81.2897 15° North 251 289 11,400  Level Jacksonville Center
Sat 10:25:16 AM 30.9933 -81.2808 North 286 329 13,400 2,000 Climbing Jacksonville Center
Sat 10:26:16 AM 31.0811 -81.2769 North 297 342 15,400 2,000 Climbing Jacksonville Center
Sat 10:27:16 AM 31.1686 -81.2706 North 303 349 17,400 1,850 Climbing Jacksonville Center
Sat 10:28:16 AM 31.2561 -81.2619 North 309 356 19,100 1,850 Climbing Jacksonville Center
Sat 10:29:16 AM 31.3564 -81.2553 North 309 356 21,100 1,750 Climbing Jacksonville Center
Sat 10:30:16 AM 31.4439 -81.2489 North 330 380 22,600 1,550 Climbing Jacksonville Center
Sat 10:31:16 AM 31.5525 -81.2397 North 340 391 24,200 1,500 Climbing Jacksonville Center
Sat 10:32:16 AM 31.6311 -81.1869 30° Northeast 352 405 25,600 1,550 Climbing Jacksonville Center
Sat 10:33:16 AM 31.7239 -81.1047 37° Northeast 378 435 27,300 1,550 Climbing Jacksonville Center
Sat 10:34:16 AM 31.8083 -81.0272 38° Northeast 384 442 28,700 1,300 Climbing Jacksonville Center
Sat 10:35:16 AM 31.8975 -80.9839 22° Northeast 384 442 29,900 1,250 Climbing Jacksonville Center
Sat 10:36:16 AM 32.0094 -80.9325 21° North 384 442 31,200 1,250 Climbing Jacksonville Center
Sat 10:37:16 AM 32.1028 -80.8889 22° Northeast 389 448 32,400 1,250 Climbing Jacksonville Center
Sat 10:38:16 AM 32.2036 -80.8056 35° Northeast 389 448 33,700 1,150 Climbing Jacksonville Center
Sat 10:39:16 AM 32.2753 -80.7231 44° Northeast 398 458 34,700 1,100 Climbing Jacksonville Center
Sat 10:40:16 AM 32.3594 -80.6325 42° Northeast 398 458 35,900 1,150 Climbing Jacksonville Center
Sat 10:41:16 AM 32.4369 -80.5444 44° Northeast 398 458 37,000 1,050 Climbing Jacksonville Center
Sat 10:42:16 AM 32.5253 -80.4656 37° Northeast 388 447 38,000 1,000 Climbing Jacksonville Center
Sat 10:43:16 AM 32.6181 -80.4017 30° Northeast 388 447 39,000 1,000 Climbing Jacksonville Center
Sat 10:44:16 AM 32.7019 -80.3203 39° Northeast 388 447 40,000 950 Climbing Jacksonville Center
Sat 10:45:16 AM 32.7836 -80.2364 41° Northeast 388 447 40,900 500 Climbing Jacksonville Center
Sat 10:46:16 AM 32.8653 -80.1500 42° Northeast 388 447 41,000 50 Climbing Jacksonville Center
Sat 10:47:16 AM 32.9633 -80.0478 41° Northeast 403 464 41,000  Level Jacksonville Center
Sat 10:48:16 AM 33.0511 -79.9608 40° Northeast 409 471 41,000  Level Jacksonville Center
Sat 10:49:16 AM 33.1386 -79.8711 41° Northeast 409 471 41,000  Level Jacksonville Center
Sat 10:50:16 AM 33.2264 -79.7836 40° Northeast 409 471 41,000  Level Jacksonville Center
Sat 10:51:16 AM 33.3117 -79.6961 41° Northeast 409 471 41,000  Level Jacksonville Center
Sat 10:52:16 AM 33.3972 -79.6061 41° Northeast 404 465 41,000  Level Jacksonville Center
Sat 10:53:16 AM 33.4844 -79.5158 41° Northeast 404 465 41,000  Level Jacksonville Center
Sat 10:54:16 AM 33.5697 -79.4253 41° Northeast 404 465 41,000  Level Jacksonville Center
Sat 10:55:16 AM 33.6569 -79.3344 41° Northeast 404 465 41,000  Level Jacksonville Center
Sat 10:56:16 AM 33.7297 -79.2567 42° Northeast 404 465 41,000  Level Jacksonville Center
Sat 10:57:16 AM 33.8169 -79.1681 40° Northeast 402 463 41,000  Level Jacksonville Center
Sat 10:59:05 AM 33.9794 -79.0000 41° Northeast 409 471 41,000  Level Washington Center
Sat 11:00:03 AM 34.0653 -78.9083 41° Northeast 404 465 41,000  Level Washington Center
Sat 11:01:03 AM 34.1492 -78.8164 42° Northeast 404 465 41,000  Level Washington Center
Sat 11:02:04 AM 34.2372 -78.7244 41° Northeast 399 459 41,000  Level Washington Center
Sat 11:03:04 AM 34.3250 -78.6347 40° Northeast 399 459 41,000  Level Washington Center
Sat 11:04:05 AM 34.4150 -78.5450 39° Northeast 399 459 41,000  Level Washington Center
Sat 11:05:03 AM 34.5006 -78.4547 41° Northeast 404 465 41,000  Level Washington Center
Sat 11:06:03 AM 34.5925 -78.3647 39° Northeast 417 480 41,000  Level Washington Center
Sat 11:07:03 AM 34.6800 -78.2742 40° Northeast 417 480 41,000  Level Washington Center
Sat 11:08:04 AM 34.7697 -78.1836 40° Northeast 412 474 41,000  Level Washington Center
Sat 11:09:05 AM 34.8467 -78.0975 43° Northeast 412 474 41,000  Level Washington Center
Sat 11:10:05 AM 34.9361 -78.0064 40° Northeast 417 480 41,000  Level Washington Center
Sat 11:11:04 AM 35.0236 -77.9153 40° Northeast 417 480 41,000  Level Washington Center
Sat 11:12:04 AM 35.1128 -77.8239 40° Northeast 412 474 41,000  Level Washington Center
Sat 11:13:05 AM 35.2022 -77.7322 40° Northeast 412 474 41,000  Level Washington Center
Sat 11:14:03 AM 35.2892 -77.6431 40° Northeast 412 474 41,000  Level Washington Center
Sat 11:15:03 AM 35.3783 -77.5511 40° Northeast 412 474 41,000  Level Washington Center
Sat 11:16:03 AM 35.4736 -77.4692 35° Northeast 412 474 41,000  Level Washington Center
Sat 11:17:04 AM 35.5689 -77.3872 35° Northeast 412 474 41,000  Level Washington Center
Sat 11:18:05 AM 35.6639 -77.3050 35° Northeast 412 474 41,000  Level Washington Center
Sat 11:19:03 AM 35.7547 -77.2200 37° Northeast 412 474 41,000  Level Washington Center
Sat 11:20:03 AM 35.8497 -77.1372 35° Northeast 412 474 41,000  Level Washington Center
Sat 11:21:03 AM 35.9469 -77.0494 36° Northeast 407 468 41,000  Level Washington Center
Sat 11:22:04 AM 36.0439 -76.9639 36° Northeast 412 474 41,000  Level Washington Center
Sat 11:23:05 AM 36.1408 -76.8781 36° Northeast 417 480 41,000  Level Washington Center
Sat 11:24:03 AM 36.2378 -76.7919 36° Northeast 417 480 41,000  Level Washington Center
Sat 11:25:03 AM 36.3325 -76.7058 36° Northeast 417 480 41,000  Level Washington Center
Sat 11:26:03 AM 36.4311 -76.6194 35° Northeast 422 486 41,000  Level Washington Center
Sat 11:27:04 AM 36.5278 -76.5353 35° Northeast 427 491 41,000  Level Washington Center
Sat 11:28:05 AM 36.6244 -76.4461 37° Northeast 427 491 41,000  Level Washington Center
Sat 11:29:05 AM 36.6981 -76.3794 36° Northeast 427 491 41,000  Level Washington Center
Sat 11:30:05 AM 36.7967 -76.2844 38° Northeast 422 486 41,000  Level Washington Center
Sat 11:31:03 AM 36.8889 -76.2022 35° Northeast 412 474 41,000  Level Washington Center
Sat 11:32:04 AM 36.9936 -76.1250 30° Northeast 406 467 41,000  Level Washington Center
Sat 11:33:04 AM 37.0958 -76.0969 12° North 398 458 41,000  Level Washington Center
Sat 11:34:03 AM 37.1961 -76.0428 23° Northeast 393 452 41,000  Level Washington Center
Sat 11:35:03 AM 37.2964 -75.9886 23° Northeast 388 447 41,000  Level Washington Center
Sat 11:36:04 AM 37.3969 -75.9342 23° Northeast 388 447 41,000  Level Washington Center
Sat 11:37:05 AM 37.4969 -75.8825 22° Northeast 388 447 41,000  Level Washington Center
Sat 11:38:03 AM 37.5953 -75.8197 27° Northeast 393 452 41,000  Level Washington Center
Sat 11:39:04 AM 37.6933 -75.7439 31° Northeast 398 458 41,000  Level Washington Center
Sat 11:40:04 AM 37.7914 -75.6706 31° Northeast 403 464 41,000  Level Washington Center
Sat 11:41:05 AM 37.8875 -75.5969 31° Northeast 403 464 41,000  Level Washington Center
Sat 11:42:05 AM 37.9875 -75.5258 29° Northeast 403 464 41,000  Level Washington Center
Sat 11:43:05 AM 38.0814 -75.4442 34° Northeast 403 464 41,000  Level Washington Center
Sat 11:44:04 AM 38.1708 -75.3542 38° Northeast 403 464 41,000  Level Washington Center
Sat 11:45:04 AM 38.2561 -75.2586 41° Northeast 408 470 41,000  Level Washington Center
Sat 11:46:03 AM 38.3411 -75.1656 41° Northeast 408 470 41,000  Level Washington Center
Sat 11:47:04 AM 38.4325 -75.0722 39° Northeast 408 470 41,000  Level Washington Center
Sat 11:48:05 AM 38.5197 -74.9786 40° Northeast 408 470 41,000  Level Washington Center
Sat 11:49:03 AM 38.6089 -74.8850 39° Northeast 403 464 41,000  Level Washington Center
Sat 11:50:03 AM 38.6978 -74.7911 39° Northeast 403 464 41,000  Level Washington Center
Sat 11:51:05 AM 38.7847 -74.6969 40° Northeast 403 464 41,000  Level Washington Center
Sat 11:52:05 AM 38.8736 -74.6025 40° Northeast 403 464 41,000  Level Washington Center
Sat 11:53:03 AM 38.9625 -74.5050 40° Northeast 403 464 41,000  Level Washington Center
Sat 11:54:03 AM 39.0594 -74.4019 40° Northeast 410 472 41,000  Level Washington Center
Sat 11:56:05 AM 39.2325 -74.2144 40° Northeast 410 472 41,000  Level Washington Center
Sat 11:57:03 AM 39.3208 -74.1161 41° Northeast 405 466 41,000  Level Washington Center
Sat 11:58:52 AM 39.4772 -73.9450 40° Northeast 408 470 41,000  Level Boston Center
Sat 11:59:52 AM 39.5469 -73.8686 40° Northeast 408 470 41,000  Level Boston Center
Sat 12:00:52 PM 39.6667 -73.7903 27° Northeast 403 464 41,000  Level Boston Center
Sat 12:01:52 PM 39.7694 -73.7331 23° Northeast 396 456 41,000  Level Boston Center
Sat 12:02:52 PM 39.8703 -73.6700 26° Northeast 396 456 41,000 -250 Level Boston Center
Sat 12:03:52 PM 39.9542 -73.5986 33° Northeast 396 456 40,500 -909 Descending Boston Center
Sat 12:05:04 PM 40.0489 -73.5081 36° Northeast 409 471 39,000 -1,500 Descending Boston Center
Sat 12:06:04 PM 40.1583 -73.3983 37° Northeast 414 476 37,200 -1,700 Descending Boston Center
Sat 12:07:04 PM 40.2550 -73.2967 39° Northeast 414 476 35,600 -1,650 Descending Boston Center
Sat 12:08:04 PM 40.3472 -73.2106 35° Northeast 408 470 33,900 -1,850 Descending Boston Center
Sat 12:09:04 PM 40.4372 -73.1217 37° Northeast 403 464 31,900 -2,000 Descending Boston Center
Sat 12:10:04 PM 40.5253 -73.0353 37° Northeast 403 464 29,900 -1,450 Descending Boston Center
Sat 12:11:04 PM 40.6175 -72.9458 36° Northeast 403 464 29,000 -1,300 Descending Boston Center
Sat 12:12:04 PM 40.7053 -72.8536 39° Northeast 403 464 27,300 -1,650 Descending Boston Center
Sat 12:13:04 PM 40.7931 -72.7717 35° Northeast 416 479 25,700 -1,600 Descending Boston Center
Sat 12:14:04 PM 40.8872 -72.6817 36° Northeast 421 484 24,100 -1,550 Descending Boston Center
Sat 12:15:04 PM 40.9769 -72.5914 37° Northeast 414 476 22,600 -1,500 Descending Boston Center
Sat 12:16:04 PM 41.0625 -72.5006 39° Northeast 402 463 21,100 -1,600 Descending Boston Center
Sat 12:17:04 PM 41.1478 -72.4181 36° Northeast 389 448 19,400 -2,250 Descending Boston Center
Sat 12:18:04 PM 41.2417 -72.3297 35° Northeast 384 442 16,600 -2,300 Descending Boston Center
Sat 12:19:04 PM 41.3333 -72.2964 15° North 354 407 14,800 -1,600 Descending Boston Center
Sat 12:20:04 PM 41.4311 -72.2628 14° North 354 407 13,400 -1,500 Descending Boston Center
Sat 12:20:52 PM 41.5042 -72.2406 13° North 344 396 12,100 -1,516 Descending Boston Center
Sat 12:21:35 PM 41.5686 -72.2181 15° North 338 389 11,100 -833 Descending Boston Center
Sat 12:22:04 PM 41.6125 -72.1986 18° North 339 390 11,100 -98 Level Boston Center
Sat 12:22:36 PM 41.6581 -72.1872 11° North 338 389 11,000  Descending Boston Center
Sat 12:23:04 PM 41.6936 -72.1731 17° North 333 383 11,100  Climbing Boston Center
Sat 12:23:36 PM 41.7497 -72.1592 10° North 336 387 11,000  Descending Boston Center
Sat 12:24:04 PM 41.7936 -72.1394 19° North 333 383 11,100  Climbing Boston Center
Sat 12:24:37 PM 41.8372 -72.1253 14° North 334 384 11,000 -500 Descending Boston Center
Sat 12:25:04 PM 41.8769 -72.1111 15° North 323 372 10,600 -1,180 Descending Boston Center
Sat 12:25:38 PM 41.9183 -72.0997 12° North 268 308 9,800 -1,100 Descending Boston Center
Sat 12:26:04 PM 41.9392 -72.0911 17° North 276 318 9,500 -1,770 Descending Boston Center
Sat 12:26:39 PM 41.9872 -72.0658 21° North 257 296 8,000 -2,100 Descending Boston Center
Sat 12:27:04 PM 42.0036 -72.0378 52° Northeast 244 281 7,400 -2,262 Descending Boston Center
Sat 12:27:40 PM 42.0286 -71.9903 55° Northeast 266 306 5,700 -2,300 Descending Boston Center
Sat 12:28:04 PM 42.0431 -71.9647 53° Northeast 244 281 5,100 -2,066 Descending Boston Center
Sat 12:28:41 PM 42.0867 -71.9561 North 244 281 3,600 -2,000 Descending Boston Center
Sat 12:29:04 PM 42.1119 -71.9672 342° North 210 242 3,100 -590 Descending Boston Center
Sat 12:29:42 PM 42.1494 -71.9808 345° North 230 265 3,000 -100 Descending Boston Center
Sat 12:30:04 PM 42.1639 -71.9892 337° Northwest 205 236 3,000  Level Boston Center
Sat 12:30:43 PM 42.1994 -71.9944 354° North 167 192 3,000 -200 Level Boston Center
Sat 12:31:04 PM 42.2119 -71.9889 18° North 173 199 2,800 -492 Descending Boston Center
Sat 12:31:44 PM 42.2431 -71.9803 12° North 164 189 2,500 -300 Descending Boston Center
Sat 12:32:04 PM 42.2514 -71.9858 334° Northwest 158 182 2,500 -492 Level Boston Center
Sat 12:32:45 PM 42.2681 -71.9406 64° Northeast 160 184 2,000 -300 Descending Boston Center
Sat 12:33:04 PM 42.2908 -71.9461 350° North 147 169 2,200 -787 Climbing Boston Center
Sat 12:33:46 PM 42.2656 -71.8875 120° Southeast 148 170 1,200 -1,429 Descending Boston Center
Sat 12:37:00 PM 42.2667 -71.8667 90° East  Level FlightAware Approximate
Sat 12:44:00 PM 42.2671 -71.8756 90° East  Level Estimated
Sat 12:45:00 PM 42.2667 -71.8667 90° East  Level FlightAware Approximate
Sat 12:46:00 PM 42.2671 -71.8756 90° East  Level Estimated
Sat 12:47:00 PM 42.2667 -71.8667 90° East  Level FlightAware Approximate
Sat 12:48:00 PM 42.2671 -71.8756 90° East  Level Estimated
Sat 12:49:00 PM 42.2667 -71.8667 90° East  Level FlightAware Approximate

Login

Don't have an account? Register now (free) for customized features, flight alerts, and more!